Time;durP1;ratioP1;P1;durP2;ratioP2;P2;SDS_P1;SDS_P2;PMS_P1;PMS_P2;Temp;Humidity;BMP_temperature;BMP_pressure;BME280_temperature;BME280_humidity;BME280_pressure;Samples;Min_cycle;Max_cycle;Signal;HPM_P1;HPM_P2
2023/08/08 00:01:42;;;;;;;6.93;2.20;;;12.10;99.90;;;12.45;100.00;100354.59;5022195;28;20033;-78
2023/08/08 00:04:10;;;;;;;4.93;2.00;;;12.00;99.90;;;12.30;100.00;100347.66;5029671;28;20033;-79
2023/08/08 00:06:37;;;;;;;7.03;2.15;;;11.90;99.90;;;12.64;100.00;100336.13;5026175;28;20038;-79
2023/08/08 00:09:04;;;;;;;7.13;2.63;;;11.90;99.90;;;12.07;100.00;100329.31;5018527;28;20084;-79
2023/08/08 00:11:30;;;;;;;5.22;2.40;;;11.90;99.90;;;12.08;100.00;100326.34;5025392;28;20044;-78
2023/08/08 00:13:57;;;;;;;5.15;2.53;;;11.80;99.90;;;12.13;100.00;100319.34;5016687;28;20042;-78
2023/08/08 00:16:23;;;;;;;4.95;2.28;;;11.80;99.90;;;12.33;100.00;100325.31;5022497;28;20040;-79
2023/08/08 00:18:50;;;;;;;6.35;2.40;;;11.80;99.90;;;12.44;100.00;100326.38;5023356;28;20037;-78
2023/08/08 00:21:17;;;;;;;6.93;2.60;;;11.80;99.90;;;12.35;100.00;100323.19;5018444;28;20030;-80
2023/08/08 00:23:47;;;;;;;6.57;2.67;;;11.80;99.90;;;12.43;100.00;100313.75;5024406;28;20390;-79
2023/08/08 00:26:13;;;;;;;7.03;2.27;;;11.90;99.90;;;12.49;100.00;100312.84;5018348;28;20041;-79
2023/08/08 00:28:39;;;;;;;5.32;2.50;;;11.90;99.90;;;12.49;100.00;100306.53;5029132;28;20299;-79
2023/08/08 00:31:04;;;;;;;9.20;2.50;;;12.00;99.90;;;12.61;100.00;100314.72;5033164;28;20034;-79
2023/08/08 00:33:30;;;;;;;5.80;2.30;;;12.10;99.90;;;13.22;100.00;100303.44;5027600;28;20033;-80
2023/08/08 00:35:56;;;;;;;4.55;2.38;;;12.10;99.90;;;12.72;100.00;100313.06;5025714;28;20485;-78
2023/08/08 00:38:22;;;;;;;7.50;2.40;;;12.10;99.90;;;12.76;100.00;100295.09;5030741;28;20069;-79
2023/08/08 00:40:47;;;;;;;7.28;2.58;;;12.20;99.90;;;12.76;100.00;100293.19;5026213;28;20087;-79
2023/08/08 00:43:15;;;;;;;4.70;2.35;;;12.20;99.90;;;13.66;100.00;100322.97;5026718;28;20030;-78
2023/08/08 00:45:44;;;;;;;5.50;2.47;;;12.30;99.90;;;12.65;100.00;100319.50;5036100;28;20037;-79
2023/08/08 00:48:11;;;;;;;5.70;2.60;;;12.20;99.90;;;12.43;100.00;100288.31;5036339;28;20034;-79
2023/08/08 00:50:37;;;;;;;5.85;2.55;;;12.20;99.90;;;12.62;100.00;100283.56;5027656;28;20037;-80
2023/08/08 00:53:05;;;;;;;6.90;2.63;;;12.20;99.90;;;13.22;100.00;100287.84;5042057;28;20033;-79
2023/08/08 00:55:31;;;;;;;6.15;2.45;;;12.30;99.90;;;13.29;100.00;100304.13;5028593;28;20042;-79
2023/08/08 00:57:57;;;;;;;7.45;2.50;;;12.30;99.90;;;13.24;100.00;100309.50;5030232;28;20037;-79
2023/08/08 01:00:23;;;;;;;5.00;2.45;;;12.20;99.90;;;12.47;100.00;100282.16;5028071;28;20053;-79
2023/08/08 01:02:49;;;;;;;5.10;2.40;;;12.20;99.90;;;12.57;100.00;100277.97;5029913;28;20042;-79
2023/08/08 01:05:14;;;;;;;4.93;2.50;;;12.20;99.90;;;12.64;100.00;100278.66;5033928;28;20034;-79
2023/08/08 01:08:04;;;;;;;5.40;2.58;;;12.20;99.90;;;12.68;100.00;100277.13;5028594;28;20068;-79
2023/08/08 01:10:38;;;;;;;7.43;2.53;;;12.10;99.90;;;12.44;100.00;100277.13;5039284;28;20021;-79
2023/08/08 01:13:14;;;;;;;6.40;2.70;;;12.10;99.90;;;12.55;100.00;100282.84;5047965;28;20045;-78
2023/08/08 01:15:40;;;;;;;5.95;2.60;;;12.10;99.90;;;12.31;100.00;100267.25;5051630;28;20042;-78
2023/08/08 01:18:09;;;;;;;6.10;2.45;;;12.10;99.90;;;12.47;100.00;100271.22;5045888;28;20029;-79
2023/08/08 01:20:37;;;;;;;6.32;2.50;;;12.20;99.90;;;12.68;100.00;100265.34;5038930;28;20517;-78
2023/08/08 01:23:14;;;;;;;6.30;2.22;;;12.20;99.90;;;12.61;100.00;100263.59;5056342;28;20036;-78
2023/08/08 01:25:42;;;;;;;5.70;2.30;;;12.20;99.90;;;12.61;100.00;100263.59;5042798;28;20413;-78
2023/08/08 01:28:08;;;;;;;4.53;2.55;;;12.20;99.90;;;12.56;100.00;100255.25;5035287;28;20158;-78
2023/08/08 01:30:34;;;;;;;7.43;2.72;;;12.20;99.90;;;12.65;100.00;100245.59;5036886;28;20037;-78
2023/08/08 01:33:00;;;;;;;5.82;2.17;;;12.20;99.90;;;12.80;100.00;100247.84;5038200;28;20026;-77
2023/08/08 01:35:35;;;;;;;5.03;2.63;;;12.10;99.90;;;12.70;100.00;100257.72;5033228;28;20065;-78
2023/08/08 01:38:20;;;;;;;6.72;2.50;;;12.10;99.90;;;12.80;100.00;100253.31;5051802;28;20293;-78
2023/08/08 01:40:48;;;;;;;6.85;2.70;;;12.10;99.90;;;12.61;100.00;100232.63;5044815;28;20041;-78
2023/08/08 01:43:16;;;;;;;4.47;2.30;;;12.10;99.90;;;12.77;100.00;100244.75;5035258;28;20045;-78
2023/08/08 01:45:43;;;;;;;4.03;2.30;;;12.10;99.90;;;12.85;100.00;100244.34;5033246;28;20052;-80
2023/08/08 01:48:10;;;;;;;5.20;2.58;;;12.10;99.90;;;13.00;100.00;100241.13;5041368;28;20025;-78
2023/08/08 01:50:37;;;;;;;6.63;2.25;;;12.00;99.90;;;12.94;100.00;100258.50;5037726;28;20109;-79
2023/08/08 01:53:04;;;;;;;8.18;2.90;;;12.00;99.90;;;12.99;100.00;100253.13;5027145;28;20060;-79
2023/08/08 01:55:30;;;;;;;5.45;2.78;;;12.00;99.90;;;12.96;100.00;100248.13;5030658;28;20497;-79
2023/08/08 01:57:56;;;;;;;7.25;2.45;;;12.00;99.90;;;12.97;100.00;100244.31;5037475;28;20026;-79
2023/08/08 02:00:22;;;;;;;6.30;2.60;;;12.00;99.90;;;12.90;100.00;100241.75;5031939;28;20034;-80
2023/08/08 02:02:48;;;;;;;6.03;2.63;;;12.10;99.90;;;13.03;100.00;100235.16;5021192;28;20046;-79
2023/08/08 02:05:14;;;;;;;6.65;2.45;;;12.10;99.90;;;12.96;100.00;100228.97;5025602;28;20034;-79
2023/08/08 02:07:40;;;;;;;6.20;3.03;;;12.10;99.90;;;13.13;100.00;100229.06;5026085;28;20053;-78
2023/08/08 02:10:07;;;;;;;6.28;2.90;;;12.20;99.90;;;13.06;100.00;100229.19;5036406;28;20049;-80
2023/08/08 02:12:33;;;;;;;5.45;2.63;;;12.30;99.90;;;13.19;100.00;100228.06;5031864;28;20081;-79
2023/08/08 02:15:00;;;;;;;6.22;2.80;;;12.40;99.90;;;13.29;100.00;100224.69;5043449;28;20397;-80
2023/08/08 02:17:26;;;;;;;8.10;2.50;;;12.40;99.90;;;13.33;100.00;100219.53;5043251;28;20025;-78
2023/08/08 02:19:53;;;;;;;9.40;3.33;;;12.50;99.90;;;13.38;100.00;100225.94;5038693;28;20050;-78
2023/08/08 02:22:19;;;;;;;6.75;3.03;;;12.50;99.90;;;13.33;100.00;100217.66;5043661;28;20033;-79
2023/08/08 02:24:46;;;;;;;5.95;2.78;;;12.50;99.90;;;13.33;100.00;100217.66;5037735;28;20073;-76
2023/08/08 02:27:12;;;;;;;5.93;2.92;;;12.50;99.90;;;13.37;100.00;100217.97;5038881;28;20042;-79
2023/08/08 02:29:39;;;;;;;6.85;3.13;;;12.50;99.90;;;13.37;100.00;100217.97;5017049;28;20066;-78
2023/08/08 02:32:05;;;;;;;6.38;3.00;;;12.60;99.90;;;13.48;100.00;100219.00;5011761;28;20100;-82
2023/08/08 02:34:31;;;;;;;6.07;3.00;;;12.70;99.90;;;13.52;100.00;100214.69;5024323;28;20045;-80
2023/08/08 02:36:58;;;;;;;5.70;2.60;;;12.60;99.90;;;13.21;100.00;100208.63;5026288;28;20049;-81
2023/08/08 02:39:24;;;;;;;7.07;2.67;;;12.60;99.90;;;13.08;100.00;100210.59;5032828;28;20084;-79
2023/08/08 02:41:49;;;;;;;6.35;2.70;;;12.50;99.90;;;13.07;100.00;100195.25;5012877;28;20037;-80
2023/08/08 02:44:16;;;;;;;6.97;3.13;;;12.40;99.90;;;12.95;100.00;100199.94;5022804;28;20553;-80
2023/08/08 02:46:41;;;;;;;5.78;3.13;;;12.40;99.90;;;12.70;100.00;100190.13;5021818;28;20033;-79
2023/08/08 02:49:07;;;;;;;7.68;3.30;;;12.40;99.90;;;12.94;100.00;100187.31;5026381;28;20041;-80
2023/08/08 02:51:33;;;;;;;6.57;2.90;;;12.40;99.90;;;13.06;100.00;100190.84;5014197;28;20041;-79
2023/08/08 02:53:59;;;;;;;7.22;2.83;;;12.50;99.90;;;13.05;100.00;100193.81;5024870;28;20109;-79
2023/08/08 02:56:27;;;;;;;5.65;3.15;;;12.40;99.90;;;13.21;100.00;100200.41;5022829;28;20099;-79
2023/08/08 02:58:53;;;;;;;10.48;4.00;;;12.50;99.90;;;13.32;100.00;100194.06;5025349;28;20040;-80
2023/08/08 03:01:19;;;;;;;6.50;3.00;;;12.50;99.90;;;13.94;100.00;100211.56;5018972;28;20084;-80
2023/08/08 03:03:48;;;;;;;6.40;2.95;;;12.40;99.90;;;14.29;100.00;100230.72;5027507;28;20029;-79
2023/08/08 03:06:14;;;;;;;5.63;3.03;;;12.40;99.90;;;14.10;100.00;100225.53;5022284;28;20034;-80
2023/08/08 03:08:40;;;;;;;7.07;3.08;;;12.50;99.90;;;14.24;100.00;100226.03;5035373;28;20464;-79
2023/08/08 03:11:06;;;;;;;6.35;3.05;;;12.50;99.90;;;14.32;100.00;100230.22;5038125;28;20037;-79
2023/08/08 03:13:34;;;;;;;7.70;3.47;;;12.50;99.90;;;14.12;100.00;100225.28;5026991;28;20137;-80
2023/08/08 03:16:00;;;;;;;8.45;3.67;;;12.50;99.90;;;14.40;100.00;100218.84;5038750;28;20022;-80
2023/08/08 03:18:26;;;;;;;10.90;3.67;;;12.50;99.90;;;14.15;100.00;100228.34;5042144;28;20067;-79
2023/08/08 03:20:53;;;;;;;8.80;3.47;;;12.50;99.90;;;14.44;100.00;100222.72;5033729;28;20026;-80
2023/08/08 03:23:20;;;;;;;8.65;3.63;;;12.60;99.90;;;14.30;100.00;100221.41;5031576;28;20034;-80
2023/08/08 03:25:47;;;;;;;5.40;3.45;;;12.50;99.90;;;14.10;100.00;100220.06;5017411;28;20034;-80
2023/08/08 03:28:13;;;;;;;8.23;3.13;;;12.60;99.90;;;14.16;100.00;100208.06;4998296;28;20032;-78
2023/08/08 03:30:39;;;;;;;7.05;3.45;;;12.60;99.90;;;14.35;100.00;100219.59;5015064;28;20034;-78
2023/08/08 03:33:09;;;;;;;9.57;3.45;;;12.70;99.90;;;14.50;100.00;100223.63;5043120;28;20050;-79
2023/08/08 03:35:36;;;;;;;6.90;2.90;;;12.80;99.90;;;14.42;100.00;100224.91;5027838;28;20033;-78
2023/08/08 03:38:02;;;;;;;6.63;2.97;;;12.90;99.90;;;14.58;100.00;100225.94;5022331;28;20049;-78
2023/08/08 03:40:28;;;;;;;7.65;3.30;;;13.00;99.90;;;14.71;100.00;100235.75;5037482;28;20053;-79
2023/08/08 03:42:54;;;;;;;7.35;2.90;;;13.00;99.90;;;14.69;100.00;100237.88;5022880;28;20084;-78
2023/08/08 03:45:20;;;;;;;7.85;3.05;;;13.00;99.90;;;14.49;100.00;100228.28;5016472;28;20033;-78
2023/08/08 03:47:46;;;;;;;8.65;3.58;;;13.00;99.90;;;14.48;100.00;100225.81;5023509;28;20029;-78
2023/08/08 03:50:13;;;;;;;9.38;3.22;;;13.00;99.90;;;14.40;100.00;100216.09;5021371;28;20490;-78
2023/08/08 03:52:39;;;;;;;7.25;3.38;;;12.90;99.90;;;14.44;100.00;100221.88;5019776;28;20037;-77
2023/08/08 03:55:09;;;;;;;6.60;3.80;;;12.80;99.90;;;14.39;100.00;100223.47;5026715;28;20037;-78
2023/08/08 03:57:34;;;;;;;6.25;3.70;;;12.80;99.90;;;14.22;100.00;100211.72;5011731;28;20034;-79
2023/08/08 04:00:00;;;;;;;7.60;3.58;;;12.70;99.90;;;14.36;100.00;100213.00;5015236;28;20029;-78
2023/08/08 04:02:28;;;;;;;7.65;3.50;;;12.70;99.90;;;14.36;100.00;100204.78;5013257;28;20033;-79
2023/08/08 04:04:53;;;;;;;6.67;3.73;;;12.70;99.90;;;14.24;100.00;100199.41;5022028;28;20567;-78
2023/08/08 04:07:19;;;;;;;5.63;3.28;;;12.70;99.90;;;14.20;100.00;100192.75;5038039;28;20049;-78
2023/08/08 04:09:45;;;;;;;7.85;3.50;;;12.70;99.90;;;14.29;100.00;100187.69;5042701;28;20536;-78
2023/08/08 04:12:10;;;;;;;9.98;3.78;;;12.70;99.90;;;14.26;100.00;100193.69;5020642;28;20041;-79
2023/08/08 04:14:36;;;;;;;7.53;3.40;;;12.80;99.90;;;14.58;100.00;100203.13;5026885;28;20041;-79
2023/08/08 04:17:03;;;;;;;7.10;4.00;;;12.80;99.90;;;14.42;100.00;100204.84;5026344;28;20045;-79
2023/08/08 04:19:28;;;;;;;7.57;3.30;;;12.80;99.90;;;14.42;100.00;100202.09;5027794;28;20094;-79
2023/08/08 04:21:54;;;;;;;7.95;3.60;;;12.80;99.90;;;14.42;100.00;100194.72;5037326;28;20030;-79
2023/08/08 04:24:20;;;;;;;6.55;3.33;;;12.90;99.90;;;14.50;100.00;100196.19;5027864;28;20107;-79
2023/08/08 04:26:45;;;;;;;5.60;3.25;;;13.00;99.90;;;14.63;100.00;100198.56;5023070;28;20030;-80
2023/08/08 04:29:11;;;;;;;9.05;3.88;;;13.10;99.90;;;14.72;100.00;100198.97;5026628;28;20044;-80
2023/08/08 04:31:37;;;;;;;7.28;3.58;;;13.10;99.90;;;14.81;100.00;100208.41;5023548;28;20488;-80
2023/08/08 04:34:02;;;;;;;5.90;3.10;;;13.10;99.90;;;14.76;100.00;100213.03;5022896;28;20092;-80
2023/08/08 04:36:29;;;;;;;7.22;3.28;;;13.10;99.90;;;14.87;100.00;100206.56;5017614;28;20038;-80
2023/08/08 04:38:55;;;;;;;7.50;3.38;;;13.10;99.90;;;14.65;100.00;100212.84;5029819;28;20041;-80
2023/08/08 04:41:21;;;;;;;7.95;3.60;;;13.10;99.90;;;14.66;100.00;100205.47;5028965;28;20389;-79
2023/08/08 04:43:47;;;;;;;6.25;3.35;;;13.20;99.90;;;14.58;100.00;100203.13;5033628;28;20045;-81
2023/08/08 04:46:13;;;;;;;5.50;3.30;;;13.20;99.90;;;14.49;100.00;100197.28;5027632;28;20076;-79
2023/08/08 04:48:39;;;;;;;8.73;3.30;;;13.20;99.90;;;14.73;100.00;100195.13;5027550;28;20044;-78
2023/08/08 04:51:06;;;;;;;8.52;3.22;;;13.20;99.90;;;14.76;100.00;100202.03;5027592;28;20061;-79
2023/08/08 04:53:32;;;;;;;5.18;3.00;;;13.30;99.90;;;14.81;100.00;100202.91;5027231;28;20044;-79
2023/08/08 04:55:58;;;;;;;9.73;3.53;;;13.30;99.90;;;15.17;100.00;100208.00;5042586;28;20041;-79
2023/08/08 04:58:23;;;;;;;6.28;3.08;;;13.30;99.90;;;14.92;100.00;100201.13;5026377;28;20038;-79
2023/08/08 05:00:50;;;;;;;10.32;3.35;;;13.30;99.90;;;14.92;100.00;100197.56;5027600;28;20038;-78
2023/08/08 05:03:17;;;;;;;8.03;3.47;;;13.30;99.90;;;14.84;100.00;100193.34;5027534;28;20529;-78
2023/08/08 05:05:44;;;;;;;6.68;3.25;;;13.30;99.90;;;14.74;100.00;100191.31;5027492;28;20029;-77
2023/08/08 05:08:11;;;;;;;6.82;3.30;;;13.30;99.90;;;14.91;100.00;100179.44;5042394;28;20041;-77
2023/08/08 05:10:37;;;;;;;8.35;3.53;;;13.30;99.90;;;14.88;100.00;100175.25;5027503;28;20400;-77
2023/08/08 05:13:03;;;;;;;6.80;3.80;;;13.40;99.90;;;14.98;100.00;100179.19;5027057;28;20041;-77
2023/08/08 05:15:29;;;;;;;8.35;3.30;;;13.40;99.90;;;14.89;100.00;100145.91;5027259;28;20052;-78
2023/08/08 05:17:55;;;;;;;5.25;2.97;;;13.50;99.90;;;15.15;100.00;100179.13;5025180;28;20034;-78
2023/08/08 05:20:21;;;;;;;8.05;3.25;;;13.60;99.90;;;15.05;100.00;100182.59;5025233;28;20033;-78
2023/08/08 05:22:47;;;;;;;7.82;3.42;;;13.60;99.90;;;15.19;100.00;100166.53;5040927;28;20037;-77
2023/08/08 05:25:13;;;;;;;6.63;3.30;;;13.60;99.90;;;15.09;100.00;100170.00;5022539;28;20034;-79
2023/08/08 05:27:39;;;;;;;6.40;3.30;;;13.70;99.90;;;15.16;100.00;100172.56;5021757;28;20117;-79
2023/08/08 05:30:06;;;;;;;8.02;3.80;;;13.70;99.90;;;15.34;100.00;100174.91;5028155;28;20044;-78
2023/08/08 05:32:32;;;;;;;6.07;3.00;;;13.80;99.90;;;15.10;100.00;100169.72;5026725;28;20037;-79
2023/08/08 05:34:58;;;;;;;6.18;3.05;;;13.80;99.90;;;15.13;100.00;100164.81;5027436;28;20068;-80
2023/08/08 05:37:24;;;;;;;5.95;3.25;;;13.80;99.90;;;15.17;100.00;100165.97;5020985;28;20386;-79
2023/08/08 05:39:50;;;;;;;7.30;3.58;;;13.90;99.90;;;15.29;100.00;100168.56;5028730;28;20068;-79
2023/08/08 05:42:15;;;;;;;6.18;2.97;;;13.90;99.90;;;15.46;100.00;100171.19;5031417;28;20030;-85
2023/08/08 05:44:44;;;;;;;7.15;3.45;;;14.00;99.90;;;15.37;100.00;100170.81;5017068;28;20902;-80
2023/08/08 05:47:11;;;;;;;5.15;3.05;;;14.00;99.90;;;15.45;100.00;100186.00;5021918;28;20038;-79
2023/08/08 05:49:38;;;;;;;6.43;3.30;;;14.10;99.90;;;15.28;100.00;100184.19;5035361;28;20033;-79
2023/08/08 05:52:05;;;;;;;;;;;14.20;99.90;;;15.65;100.00;100172.44;5024042;28;20468;-80
2023/08/08 05:54:30;;;;;;;5.10;2.92;;;14.20;99.90;;;15.99;100.00;100198.84;5018190;28;19936;-80
2023/08/08 05:56:56;;;;;;;7.40;3.75;;;14.30;99.90;;;15.82;100.00;100186.06;5027876;28;20033;-79
2023/08/08 05:59:22;;;;;;;5.75;2.90;;;14.40;99.90;;;16.03;100.00;100199.16;5029457;28;20037;-79
2023/08/08 06:01:47;;;;;;;9.55;3.47;;;14.40;99.90;;;15.87;100.00;100192.69;5039783;28;20034;-79
2023/08/08 06:04:13;;;;;;;4.97;3.60;;;14.50;99.90;;;16.17;100.00;100205.84;5025196;28;20049;-82
2023/08/08 06:06:39;;;;;;;7.47;3.58;;;14.60;99.90;;;16.36;100.00;100217.25;5025697;28;20073;-78
2023/08/08 06:09:05;;;;;;;7.13;3.60;;;14.70;99.90;;;16.37;100.00;100218.91;5019449;28;20176;-83
2023/08/08 06:11:31;;;;;;;7.70;3.72;;;14.70;99.90;;;16.30;100.00;100210.03;5031331;28;20040;-78
2023/08/08 06:13:57;;;;;;;8.35;3.83;;;14.70;99.90;;;16.39;100.00;100213.13;5032428;28;20037;-80
2023/08/08 06:16:22;;;;;;;8.10;3.72;;;14.80;99.90;;;16.50;100.00;100214.03;5037584;28;20040;-79
2023/08/08 06:18:48;;;;;;;9.27;4.10;;;14.90;99.90;;;16.23;100.00;100220.47;5024756;28;20080;-79
2023/08/08 06:21:14;;;;;;;6.75;3.80;;;14.90;99.90;;;16.41;100.00;100216.44;5026788;28;20033;-83
2023/08/08 06:23:40;;;;;;;7.13;4.05;;;14.90;99.90;;;16.40;100.00;100212.03;5024120;28;20343;-82
2023/08/08 06:26:06;;;;;;;6.65;3.97;;;14.90;99.90;;;16.30;100.00;100220.25;5030151;28;20064;-77
2023/08/08 06:28:32;;;;;;;8.52;3.88;;;14.80;99.90;;;15.99;100.00;100211.78;5029889;28;20029;-77
2023/08/08 06:30:59;;;;;;;8.70;3.80;;;14.80;99.90;;;16.20;100.00;100199.00;5042979;28;20033;-78
2023/08/08 06:33:24;;;;;;;7.80;3.83;;;14.80;99.90;;;16.33;100.00;100208.69;5024845;28;20046;-76
2023/08/08 06:35:50;;;;;;;6.57;4.10;;;14.80;99.90;;;16.24;100.00;100216.63;5030732;28;20041;-79
2023/08/08 06:38:16;;;;;;;7.22;3.70;;;15.00;99.90;;;16.36;100.00;100214.50;5013891;28;20034;-81
2023/08/08 06:40:41;;;;;;;6.90;3.53;;;15.10;99.90;;;16.76;100.00;100216.91;5028635;28;20040;-76
2023/08/08 06:43:07;;;;;;;8.13;3.78;;;15.10;99.90;;;16.60;100.00;100213.25;5024947;28;20493;-79
2023/08/08 06:45:33;;;;;;;8.07;3.90;;;15.20;99.90;;;16.79;100.00;100222.72;5029832;28;20041;-81
2023/08/08 06:48:00;;;;;;;10.07;4.05;;;15.30;99.90;;;17.10;100.00;100209.06;5015832;28;20617;-80
2023/08/08 06:50:26;;;;;;;8.38;3.78;;;15.50;99.90;;;17.07;100.00;100206.00;5028056;28;20473;-81
2023/08/08 06:52:52;;;;;;;8.35;4.18;;;15.70;99.90;;;17.26;100.00;100214.63;5030386;28;20045;-83
2023/08/08 06:55:18;;;;;;;7.72;3.97;;;15.80;99.90;;;17.56;100.00;100213.03;5025547;28;20048;-78
2023/08/08 06:57:43;;;;;;;6.30;3.72;;;16.00;99.90;;;17.76;100.00;100222.38;5026964;28;20037;-77
2023/08/08 07:00:13;;;;;;;7.80;4.00;;;16.10;99.90;;;17.66;100.00;100213.00;5029535;28;20477;-78
2023/08/08 07:02:39;;;;;;;9.75;3.80;;;16.00;99.90;;;17.71;100.00;100217.72;5024702;28;20050;-80
2023/08/08 07:05:06;;;;;;;7.78;3.83;;;16.10;99.90;;;17.61;100.00;100221.28;5028220;28;20119;-79
2023/08/08 07:07:33;;;;;;;8.77;3.80;;;16.20;99.90;;;17.71;100.00;100219.63;5029094;28;20448;-79
2023/08/08 07:09:59;;;;;;;7.65;3.80;;;16.30;99.90;;;17.94;100.00;100219.06;5016791;28;20049;-79
2023/08/08 07:12:25;;;;;;;7.05;3.40;;;16.50;99.90;;;18.31;100.00;100216.31;5028137;28;20110;-79
2023/08/08 07:14:51;;;;;;;7.57;3.28;;;16.80;99.90;;;18.46;100.00;100221.78;5029477;28;20490;-82
2023/08/08 07:17:16;;;;;;;6.78;2.90;;;17.00;99.90;;;18.61;100.00;100220.09;5029825;28;20044;-78
2023/08/08 07:19:42;;;;;;;6.18;2.80;;;17.20;99.90;;;18.27;100.00;100218.81;5028394;28;20033;-77
2023/08/08 07:22:08;;;;;;;6.40;2.72;;;17.20;99.90;;;18.37;100.00;100216.00;5029193;28;20033;-77
2023/08/08 07:24:34;;;;;;;6.63;2.75;;;17.30;99.90;;;18.51;100.00;100220.97;5020968;28;20189;-80
2023/08/08 07:27:00;;;;;;;5.68;2.58;;;17.40;99.90;;;18.77;100.00;100224.44;5023971;28;20064;-80
2023/08/08 07:29:26;;;;;;;5.40;2.55;;;17.50;99.90;;;18.66;100.00;100212.59;5019804;28;20056;-80
2023/08/08 07:31:53;;;;;;;5.93;2.58;;;17.50;99.90;;;18.76;100.00;100217.25;5026694;28;20041;-79
2023/08/08 07:34:20;;;;;;;6.53;2.38;;;17.50;99.90;;;18.43;100.00;100204.94;5029099;28;20102;-76
2023/08/08 07:36:47;;;;;;;6.97;2.55;;;17.40;99.90;;;18.08;100.00;100204.75;5028981;28;20034;-77
2023/08/08 07:39:13;;;;;;;6.72;2.78;;;17.20;99.90;;;17.95;100.00;100193.13;5033220;28;20080;-79
2023/08/08 07:41:39;;;;;;;4.22;2.05;;;17.00;99.90;;;18.13;100.00;100215.78;5026801;28;20491;-80
2023/08/08 07:44:05;;;;;;;7.05;1.98;;;16.90;99.90;;;18.16;100.00;100218.00;5043415;28;20040;-78
2023/08/08 07:46:32;;;;;;;3.53;2.10;;;17.00;99.90;;;18.23;100.00;100209.44;5027742;28;20462;-78
2023/08/08 07:49:03;;;;;;;5.47;2.00;;;17.10;99.90;;;17.50;100.00;100197.53;5020365;28;20044;-81
2023/08/08 07:51:29;;;;;;;6.32;2.25;;;16.90;99.90;;;17.76;100.00;100203.06;5022985;28;20041;-77
2023/08/08 07:53:55;;;;;;;6.53;2.25;;;17.00;99.90;;;18.01;100.00;100195.88;5028987;28;20037;-77
2023/08/08 07:56:21;;;;;;;6.57;2.42;;;17.00;99.90;;;18.48;100.00;100203.00;5028720;28;20535;-76
2023/08/08 07:58:47;;;;;;;5.07;2.10;;;17.20;99.90;;;18.26;100.00;100204.16;5028148;28;20037;-78
2023/08/08 08:01:13;;;;;;;4.50;1.88;;;17.30;99.90;;;18.49;100.00;100199.13;5027783;28;20045;-78
2023/08/08 08:03:40;;;;;;;7.88;2.00;;;17.40;99.90;;;18.57;100.00;100194.16;5025869;28;20116;-77
2023/08/08 08:06:06;;;;;;;5.97;2.10;;;17.70;99.90;;;19.11;100.00;100212.72;5027348;28;20037;-78
2023/08/08 08:08:32;;;;;;;7.32;2.10;;;18.00;99.90;;;19.09;100.00;100212.16;5028424;28;20116;-77
2023/08/08 08:10:58;;;;;;;5.80;2.28;;;18.10;99.90;;;19.11;100.00;100204.44;5028498;28;20038;-78
2023/08/08 08:13:24;;;;;;;6.78;1.80;;;17.90;99.90;;;18.96;100.00;100196.19;5029016;28;20551;-77
2023/08/08 08:15:49;;;;;;;4.88;1.90;;;18.00;99.90;;;18.97;100.00;100190.38;5027417;28;20034;-77
2023/08/08 08:18:16;;;;;;;5.05;1.98;;;18.00;99.90;;;19.05;100.00;100177.91;5028541;28;20041;-77
2023/08/08 08:20:44;;;;;;;5.43;1.90;;;17.90;99.90;;;18.98;100.00;100194.00;5042424;28;20441;-76
2023/08/08 08:23:10;;;;;;;6.28;1.92;;;17.80;99.90;;;19.07;100.00;100199.75;5023870;28;20036;-77
2023/08/08 08:25:35;;;;;;;5.30;1.30;;;18.00;99.90;;;18.71;100.00;100180.56;5027084;28;20473;-79
2023/08/08 08:28:01;;;;;;;7.78;1.67;;;18.00;99.90;;;18.96;100.00;100185.97;5040312;28;20041;-78
2023/08/08 08:30:27;;;;;;;5.43;1.65;;;18.10;99.90;;;19.20;100.00;100177.00;5023892;28;20034;-78
2023/08/08 08:32:53;;;;;;;5.15;1.70;;;18.30;99.90;;;19.21;100.00;100181.41;5025650;28;20485;-77
2023/08/08 08:35:19;;;;;;;6.15;1.85;;;18.30;99.90;;;19.28;100.00;100171.97;5043423;28;20041;-78
2023/08/08 08:37:45;;;;;;;5.07;1.30;;;18.40;99.90;;;19.23;100.00;100176.44;5028196;28;20045;-77
2023/08/08 08:40:11;;;;;;;3.10;1.33;;;18.40;99.90;;;18.64;100.00;100167.06;5028347;28;20461;-77
2023/08/08 08:42:39;;;;;;;4.75;1.52;;;18.10;99.90;;;19.44;100.00;100158.88;5028191;28;20040;-76
2023/08/08 08:45:06;;;;;;;4.75;1.52;;;18.40;99.90;;;19.53;100.00;100149.66;5043201;28;20046;-76
2023/08/08 08:47:36;;;;;;;3.80;1.25;;;18.70;99.90;;;20.13;100.00;100153.25;5027829;28;20041;-76
2023/08/08 08:50:03;;;;;;;3.58;1.40;;;19.10;99.90;;;20.01;99.46;100153.66;5023052;28;20103;-80
2023/08/08 08:52:29;;;;;;;5.40;1.40;;;19.20;99.90;;;20.47;99.83;100152.34;5018393;28;20038;-78
2023/08/08 08:54:56;;;;;;;4.78;1.38;;;19.30;99.90;;;19.47;93.86;100141.69;5028057;28;20072;-77
2023/08/08 08:57:25;;;;;;;5.97;1.40;;;19.30;98.70;;;19.78;93.76;100130.34;5028098;28;20033;-78
2023/08/08 08:59:52;;;;;;;3.55;1.40;;;19.10;99.50;;;19.57;92.18;100132.47;5017113;28;20493;-77
2023/08/08 09:02:18;;;;;;;4.63;1.60;;;18.90;98.70;;;19.63;98.05;100162.59;5028106;28;20037;-76
2023/08/08 09:04:45;;;;;;;4.63;1.30;;;18.80;99.90;;;19.53;93.46;100144.13;5028143;28;20065;-76
2023/08/08 09:07:12;;;;;;;4.53;1.52;;;18.80;98.80;;;19.31;93.42;100138.22;5028743;28;20434;-77
2023/08/08 09:09:38;;;;;;;4.00;1.50;;;18.70;98.70;;;19.24;96.64;100172.56;5023094;28;20422;-77
2023/08/08 09:12:05;;;;;;;5.38;1.67;;;18.40;99.90;;;18.67;100.00;100194.09;5020644;28;20053;-76
2023/08/08 09:14:31;;;;;;;4.55;1.70;;;18.10;99.90;;;18.43;100.00;100172.66;5043522;28;20045;-77
2023/08/08 09:16:57;;;;;;;5.25;2.03;;;17.60;99.90;;;17.93;100.00;100161.44;5047336;28;20087;-75
2023/08/08 09:19:24;;;;;;;6.00;1.85;;;17.10;99.90;;;17.89;100.00;100166.66;5046821;28;20040;-76
2023/08/08 09:21:52;;;;;;;5.78;1.95;;;16.90;99.90;;;18.15;100.00;100169.41;5031580;28;20385;-76
2023/08/08 09:24:19;;;;;;;5.90;2.15;;;16.80;99.90;;;18.66;100.00;100154.59;5031601;28;20099;-75
2023/08/08 09:26:45;;;;;;;5.55;2.38;;;17.20;99.90;;;19.19;100.00;100163.47;5027719;28;20110;-75
2023/08/08 09:29:14;;;;;;;5.10;2.10;;;17.70;99.90;;;19.19;100.00;100164.28;5031493;28;20038;-76
2023/08/08 09:31:40;;;;;;;5.72;2.38;;;18.00;99.90;;;19.59;100.00;100161.50;5032752;28;20052;-78
2023/08/08 09:34:06;;;;;;;4.07;1.90;;;18.20;99.90;;;20.21;100.00;100155.41;5030506;28;20041;-77
2023/08/08 09:36:33;;;;;;;4.57;2.00;;;18.80;99.90;;;20.53;100.00;100134.53;5021032;28;20048;-79
2023/08/08 09:38:59;;;;;;;7.57;2.42;;;19.40;99.90;;;20.49;100.00;100166.72;5031472;28;20056;-78
2023/08/08 09:41:26;;;;;;;5.50;2.00;;;19.50;99.90;;;20.48;100.00;100159.53;5031371;28;20037;-76
2023/08/08 09:43:53;;;;;;;5.25;2.25;;;19.40;99.90;;;20.69;100.00;100153.75;5029938;28;20095;-77
2023/08/08 09:46:21;;;;;;;7.13;2.30;;;19.50;99.90;;;20.38;100.00;100163.25;5045409;28;20425;-76
2023/08/08 09:48:47;;;;;;;5.00;2.10;;;19.50;99.90;;;19.72;100.00;100150.88;5027601;28;20056;-76
2023/08/08 09:51:14;;;;;;;8.05;2.50;;;19.00;99.90;;;19.04;100.00;100164.38;5046045;28;20138;-77
2023/08/08 09:53:41;;;;;;;5.43;2.08;;;18.40;99.90;;;18.80;100.00;100160.31;5031146;28;20132;-78
2023/08/08 09:56:08;;;;;;;6.82;2.65;;;18.00;99.90;;;18.82;100.00;100149.81;5031827;28;20029;-77
2023/08/08 09:58:34;;;;;;;7.18;2.50;;;17.80;99.90;;;18.62;100.00;100169.28;5019101;28;20080;-78
2023/08/08 10:01:00;;;;;;;6.18;1.98;;;17.60;99.90;;;18.30;100.00;100153.91;5025526;28;20037;-78
2023/08/08 10:03:27;;;;;;;5.68;1.90;;;17.50;99.90;;;18.64;100.00;100164.28;5019949;28;20038;-79